createdAt,value
2018-12-24T00:00:27.791Z,1006.16
2018-12-24T00:01:27.762Z,1006.12
2018-12-24T00:02:27.749Z,1006.14
2018-12-24T00:03:27.734Z,1006.14
2018-12-24T00:04:27.730Z,1006.16
2018-12-24T00:05:27.736Z,1006.19
2018-12-24T00:06:27.719Z,1006.23
2018-12-24T00:07:27.717Z,1006.22
2018-12-24T00:08:27.679Z,1006.24
2018-12-24T00:09:27.671Z,1006.30
2018-12-24T00:10:27.685Z,1006.32
2018-12-24T00:11:27.647Z,1006.35
2018-12-24T00:12:27.630Z,1006.35
2018-12-24T00:13:27.629Z,1006.38
2018-12-24T00:14:27.625Z,1006.41
2018-12-24T00:15:27.637Z,1006.41
2018-12-24T00:16:27.600Z,1006.43
2018-12-24T00:17:27.651Z,1006.37
2018-12-24T00:18:27.575Z,1006.36
2018-12-24T00:19:27.589Z,1006.37
2018-12-24T00:20:27.578Z,1006.37
2018-12-24T00:21:27.569Z,1006.39
2018-12-24T00:22:27.538Z,1006.39
2018-12-24T00:23:27.525Z,1006.43
2018-12-24T00:24:27.513Z,1006.43
2018-12-24T00:25:27.533Z,1006.46
2018-12-24T00:26:27.495Z,1006.44
2018-12-24T00:27:27.513Z,1006.46
2018-12-24T00:28:27.475Z,1006.47
2018-12-24T00:29:27.474Z,1006.45
2018-12-24T00:30:27.479Z,1006.54
2018-12-24T00:31:27.442Z,1006.57
2018-12-24T00:32:27.430Z,1006.56
2018-12-24T00:33:27.419Z,1006.59
2018-12-24T00:34:27.413Z,1006.65
2018-12-24T00:35:27.418Z,1006.67
2018-12-24T00:36:27.403Z,1006.69
2018-12-24T00:37:27.369Z,1006.72
2018-12-24T00:38:27.378Z,1006.77
2018-12-24T00:39:27.360Z,1006.84
2018-12-24T00:40:27.366Z,1006.92
2018-12-24T00:41:27.334Z,1006.85
2018-12-24T00:42:27.322Z,1006.89
2018-12-24T00:43:27.302Z,1006.97
2018-12-24T00:44:27.308Z,1006.96
2018-12-24T00:45:27.319Z,1007.03
2018-12-24T00:46:27.288Z,1007.03
2018-12-24T00:47:27.274Z,1007.09
2018-12-24T00:48:27.293Z,1007.08
2018-12-24T00:49:27.250Z,1007.16
2018-12-24T00:50:27.261Z,1007.17
2018-12-24T00:51:27.227Z,1007.23
2018-12-24T00:52:27.219Z,1007.25
2018-12-24T00:53:27.212Z,1007.28
2018-12-24T00:54:27.200Z,1007.28
2018-12-24T00:55:27.201Z,1007.34
2018-12-24T00:56:27.170Z,1007.34
2018-12-24T00:57:27.163Z,1007.36
2018-12-24T00:58:27.159Z,1007.42
2018-12-24T00:59:27.141Z,1007.35
2018-12-24T01:00:27.152Z,1007.41
2018-12-24T01:01:27.114Z,1007.46
2018-12-24T01:02:27.108Z,1007.49
2018-12-24T01:03:27.092Z,1007.52
2018-12-24T01:04:27.087Z,1007.53
2018-12-24T01:05:27.096Z,1007.54
2018-12-24T01:06:27.063Z,1007.60
2018-12-24T01:07:27.048Z,1007.56
2018-12-24T01:08:27.029Z,1007.59
2018-12-24T01:09:27.030Z,1007.62
2018-12-24T01:10:27.016Z,1007.63
2018-12-24T01:11:27.006Z,1007.67
2018-12-24T01:12:26.985Z,1007.69
2018-12-24T01:13:26.979Z,1007.68
2018-12-24T01:14:26.976Z,1007.67
2018-12-24T01:15:26.950Z,1007.76
2018-12-24T01:16:26.987Z,1007.71
2018-12-24T01:17:26.964Z,1007.73
2018-12-24T01:18:26.928Z,1007.72
2018-12-24T01:19:26.929Z,1007.74
2018-12-24T01:20:26.907Z,1007.77
2018-12-24T01:21:26.912Z,1007.77
2018-12-24T01:22:26.877Z,1007.85
2018-12-24T01:23:26.864Z,1007.83
2018-12-24T01:24:26.876Z,1007.86
2018-12-24T01:25:26.857Z,1007.89
2018-12-24T01:26:26.855Z,1007.87
2018-12-24T01:27:26.848Z,1007.90
2018-12-24T01:28:26.819Z,1008.00
2018-12-24T01:29:26.821Z,1008.02
2018-12-24T01:30:26.813Z,1008.00
2018-12-24T01:31:26.805Z,1008.00
2018-12-24T01:32:26.781Z,1008.03
2018-12-24T01:33:26.769Z,1008.05
2018-12-24T01:34:26.753Z,1008.07
2018-12-24T01:36:37.160Z,1008.15
2018-12-24T01:37:38.080Z,1008.16
2018-12-24T01:38:38.066Z,1008.13
2018-12-24T01:39:38.054Z,1008.13
2018-12-24T01:40:38.054Z,1008.14
2018-12-24T01:41:38.288Z,1008.16
2018-12-24T01:42:38.024Z,1008.15
2018-12-24T01:43:38.016Z,1008.15
2018-12-24T01:44:38.005Z,1008.15
2018-12-24T01:45:37.996Z,1008.16
2018-12-24T01:46:37.993Z,1008.20
2018-12-24T01:47:37.973Z,1008.22
2018-12-24T01:48:37.963Z,1008.23
2018-12-24T01:49:37.960Z,1008.29
2018-12-24T01:50:37.937Z,1008.25
2018-12-24T01:51:37.927Z,1008.27
2018-12-24T01:52:37.949Z,1008.30
2018-12-24T01:53:37.914Z,1008.34
2018-12-24T01:54:37.912Z,1008.33
2018-12-24T01:55:37.882Z,1008.36
2018-12-24T01:56:37.862Z,1008.39
2018-12-24T01:57:37.879Z,1008.45
2018-12-24T01:58:37.841Z,1008.38
2018-12-24T01:59:37.841Z,1008.46
2018-12-24T02:00:37.823Z,1008.48
2018-12-24T02:01:37.821Z,1008.59
2018-12-24T02:02:37.824Z,1008.60
2018-12-24T02:03:37.794Z,1008.65
2018-12-24T02:04:37.786Z,1008.67
2018-12-24T02:05:37.766Z,1008.68
2018-12-24T02:06:37.751Z,1008.68
2018-12-24T02:07:37.765Z,1008.65
2018-12-24T02:08:37.745Z,1008.69
2018-12-24T02:09:37.726Z,1008.67
2018-12-24T02:10:37.706Z,1008.65
2018-12-24T02:11:37.703Z,1008.69
2018-12-24T02:12:42.231Z,1008.68
2018-12-24T02:13:37.685Z,1008.68
2018-12-24T02:14:37.680Z,1008.71
2018-12-24T02:15:37.678Z,1008.74
2018-12-24T02:16:37.647Z,1008.74
2018-12-24T02:17:37.654Z,1008.79
2018-12-24T02:18:37.630Z,1008.84
2018-12-24T02:19:37.623Z,1008.84
2018-12-24T02:20:37.601Z,1008.85
2018-12-24T02:21:37.621Z,1008.82
2018-12-24T02:22:37.611Z,1008.78
2018-12-24T02:23:37.571Z,1008.83
2018-12-24T02:24:37.562Z,1008.85
2018-12-24T02:25:37.551Z,1008.82
2018-12-24T02:26:37.531Z,1008.87
2018-12-24T02:27:37.550Z,1008.83
2018-12-24T02:28:37.525Z,1008.87
2018-12-24T02:29:37.510Z,1008.92
2018-12-24T02:30:37.494Z,1008.96
2018-12-24T02:31:37.487Z,1008.95
2018-12-24T02:32:37.488Z,1009.00
2018-12-24T02:33:37.465Z,1009.00
2018-12-24T02:34:37.452Z,1009.00
2018-12-24T02:35:37.435Z,1009.06
2018-12-24T02:36:37.433Z,1009.07
2018-12-24T02:37:37.444Z,1009.14
2018-12-24T02:38:37.412Z,1009.07
2018-12-24T02:39:37.398Z,1009.14
2018-12-24T02:40:37.385Z,1009.15
2018-12-24T02:41:37.375Z,1009.20
2018-12-24T02:42:37.400Z,1009.22
2018-12-24T02:43:37.366Z,1009.24
2018-12-24T02:44:37.337Z,1009.23
2018-12-24T02:45:37.329Z,1009.24
2018-12-24T02:46:37.326Z,1009.26
2018-12-24T02:47:37.334Z,1009.27
2018-12-24T02:48:37.291Z,1009.27
2018-12-24T02:49:37.302Z,1009.33
2018-12-24T02:50:37.312Z,1009.32
2018-12-24T02:51:37.283Z,1009.34
2018-12-24T02:52:37.277Z,1009.38
2018-12-24T02:53:37.248Z,1009.43
2018-12-24T02:54:37.226Z,1009.42
2018-12-24T02:55:37.230Z,1009.45
2018-12-24T02:56:37.215Z,1009.45
2018-12-24T02:57:37.216Z,1009.40
2018-12-24T02:58:37.190Z,1009.47
2018-12-24T02:59:37.185Z,1009.46
2018-12-24T03:00:37.172Z,1009.47
2018-12-24T03:01:37.293Z,1009.55
2018-12-24T03:02:37.174Z,1009.53
2018-12-24T03:03:37.139Z,1009.53
2018-12-24T03:04:37.123Z,1009.51
2018-12-24T03:05:37.110Z,1009.59
2018-12-24T03:06:37.106Z,1009.66
2018-12-24T03:07:37.111Z,1009.64
2018-12-24T03:08:37.093Z,1009.66
2018-12-24T03:09:37.070Z,1009.67
2018-12-24T03:10:37.082Z,1009.68
2018-12-24T03:11:37.044Z,1009.75
2018-12-24T03:12:37.051Z,1009.80
2018-12-24T03:13:37.022Z,1009.84
2018-12-24T03:14:37.025Z,1009.86
2018-12-24T03:15:36.997Z,1009.85
2018-12-24T03:16:37.000Z,1009.90
2018-12-24T03:17:36.972Z,1009.91
2018-12-24T03:18:36.996Z,1009.96
2018-12-24T03:19:36.960Z,1010.01
2018-12-24T03:20:36.967Z,1009.96
2018-12-24T03:21:36.950Z,1009.99
2018-12-24T03:22:36.923Z,1010.05
2018-12-24T03:23:36.934Z,1010.02
2018-12-24T03:24:36.897Z,1010.03
2018-12-24T03:25:36.898Z,1010.07
2018-12-24T03:26:36.878Z,1010.07
2018-12-24T03:27:36.876Z,1010.12
2018-12-24T03:28:36.884Z,1010.11
2018-12-24T03:29:36.865Z,1010.12
2018-12-24T03:30:36.848Z,1010.13
2018-12-24T03:31:36.841Z,1010.15
2018-12-24T03:32:36.811Z,1010.19
2018-12-24T03:33:36.830Z,1010.15
2018-12-24T03:34:36.800Z,1010.23
2018-12-24T03:35:36.785Z,1010.19
2018-12-24T03:37:47.093Z,1010.20
2018-12-24T03:38:48.105Z,1010.21
2018-12-24T03:39:48.055Z,1010.23
2018-12-24T03:40:48.018Z,1010.23
2018-12-24T03:41:48.015Z,1010.25
2018-12-24T03:42:47.997Z,1010.25
2018-12-24T03:43:47.990Z,1010.32
2018-12-24T03:44:48.005Z,1010.31
2018-12-24T03:45:47.979Z,1010.37
2018-12-24T03:46:47.966Z,1010.37
2018-12-24T03:47:47.949Z,1010.38
2018-12-24T03:48:47.952Z,1010.37
2018-12-24T03:49:47.948Z,1010.40
2018-12-24T03:50:47.917Z,1010.42
2018-12-24T03:51:47.918Z,1010.43
2018-12-24T03:52:47.899Z,1010.43
2018-12-24T03:53:47.891Z,1010.44
2018-12-24T03:54:47.903Z,1010.45
2018-12-24T03:55:47.955Z,1010.46
2018-12-24T03:56:47.859Z,1010.43
2018-12-24T03:57:47.839Z,1010.48
2018-12-24T03:58:47.827Z,1010.47
2018-12-24T03:59:47.834Z,1010.46
2018-12-24T04:00:47.812Z,1010.49
2018-12-24T04:01:47.827Z,1010.53
2018-12-24T04:02:47.783Z,1010.53
2018-12-24T04:03:47.776Z,1010.58
2018-12-24T04:04:47.785Z,1010.58
2018-12-24T04:05:47.748Z,1010.60
2018-12-24T04:06:47.737Z,1010.64
2018-12-24T04:07:47.736Z,1010.67
2018-12-24T04:08:47.729Z,1010.69
2018-12-24T04:09:47.729Z,1010.69
2018-12-24T04:10:47.697Z,1010.70
2018-12-24T04:11:47.689Z,1010.67
2018-12-24T04:12:47.680Z,1010.70
2018-12-24T04:13:47.690Z,1010.72
2018-12-24T04:14:47.683Z,1010.73
2018-12-24T04:15:47.641Z,1010.77
2018-12-24T04:16:47.627Z,1010.80
2018-12-24T04:17:47.636Z,1010.81
2018-12-24T04:18:47.603Z,1010.79
2018-12-24T04:19:47.629Z,1010.84
2018-12-24T04:20:47.587Z,1010.88
2018-12-24T04:21:47.584Z,1010.94
2018-12-24T04:22:47.590Z,1010.98
2018-12-24T04:23:47.568Z,1011.03
2018-12-24T04:24:47.563Z,1011.03
2018-12-24T04:25:47.731Z,1011.09
2018-12-24T04:26:47.537Z,1011.10
2018-12-24T04:27:47.516Z,1011.12
2018-12-24T04:28:47.507Z,1011.16
2018-12-24T04:29:47.507Z,1011.25
2018-12-24T04:30:47.487Z,1011.28
2018-12-24T04:31:47.475Z,1011.23
2018-12-24T04:32:47.465Z,1011.33
2018-12-24T04:33:47.443Z,1011.35
2018-12-24T04:34:47.472Z,1011.40
2018-12-24T04:35:47.425Z,1011.36
2018-12-24T04:36:47.425Z,1011.37
2018-12-24T04:37:47.403Z,1011.41
2018-12-24T04:38:47.405Z,1011.42
2018-12-24T04:39:47.419Z,1011.43
2018-12-24T04:40:47.381Z,1011.46
2018-12-24T04:41:47.360Z,1011.52
2018-12-24T04:42:47.350Z,1011.55
2018-12-24T04:43:47.350Z,1011.56
2018-12-24T04:44:47.356Z,1011.60
2018-12-24T04:45:47.330Z,1011.64
2018-12-24T04:46:47.312Z,1011.68
2018-12-24T04:47:47.322Z,1011.71
2018-12-24T04:48:47.305Z,1011.79
2018-12-24T04:49:47.304Z,1011.82
2018-12-24T04:50:47.274Z,1011.80
2018-12-24T04:51:47.248Z,1011.83
2018-12-24T04:52:47.253Z,1011.86
2018-12-24T04:53:47.227Z,1011.87
2018-12-24T04:54:47.253Z,1011.91
2018-12-24T04:55:47.218Z,1011.95
2018-12-24T04:56:47.198Z,1011.98
2018-12-24T04:57:47.187Z,1012.03
2018-12-24T04:58:47.174Z,1012.01
2018-12-24T04:59:47.193Z,1012.02
2018-12-24T05:00:47.170Z,1012.02
2018-12-24T05:01:47.139Z,1012.03
2018-12-24T05:02:47.137Z,1012.01
2018-12-24T05:03:47.131Z,1012.07
2018-12-24T05:04:47.137Z,1012.07
2018-12-24T05:05:47.115Z,1012.09
2018-12-24T05:06:47.087Z,1012.18
2018-12-24T05:07:47.076Z,1012.19
2018-12-24T05:08:47.072Z,1012.17
2018-12-24T05:09:47.074Z,1012.26
2018-12-24T05:10:47.050Z,1012.26
2018-12-24T05:11:47.035Z,1012.27
2018-12-24T05:12:47.021Z,1012.24
2018-12-24T05:13:47.013Z,1012.31
2018-12-24T05:14:47.016Z,1012.34
2018-12-24T05:15:47.012Z,1012.34
2018-12-24T05:16:46.989Z,1012.40
2018-12-24T05:17:46.979Z,1012.41
2018-12-24T05:18:46.969Z,1012.41
2018-12-24T05:19:46.965Z,1012.36
2018-12-24T05:20:46.964Z,1012.45
2018-12-24T05:21:46.927Z,1012.54
2018-12-24T05:22:46.912Z,1012.52
2018-12-24T05:23:46.916Z,1012.63
2018-12-24T05:24:46.915Z,1012.66
2018-12-24T05:25:46.901Z,1012.66
2018-12-24T05:26:46.931Z,1012.69
2018-12-24T05:27:46.860Z,1012.78
2018-12-24T05:28:46.856Z,1012.79
2018-12-24T05:29:46.863Z,1012.81
2018-12-24T05:30:46.851Z,1012.91
2018-12-24T05:31:46.832Z,1012.92
2018-12-24T05:32:46.823Z,1012.97
2018-12-24T05:33:46.804Z,1013.03
2018-12-24T05:34:46.797Z,1013.03
2018-12-24T05:35:46.822Z,1013.02
2018-12-24T05:36:46.780Z,1013.03
2018-12-24T05:38:56.001Z,1013.05
2018-12-24T05:39:56.932Z,1013.06
2018-12-24T05:40:56.951Z,1013.07
2018-12-24T05:41:56.912Z,1013.05
2018-12-24T05:42:56.914Z,1013.10
2018-12-24T05:43:56.911Z,1013.13
2018-12-24T05:44:56.963Z,1013.18
2018-12-24T05:45:56.890Z,1013.18
2018-12-24T05:46:56.860Z,1013.24
2018-12-24T05:47:56.876Z,1013.23
2018-12-24T05:48:56.858Z,1013.29
2018-12-24T05:49:56.837Z,1013.28
2018-12-24T05:50:56.834Z,1013.35
2018-12-24T05:51:56.859Z,1013.42
2018-12-24T05:52:56.805Z,1013.42
2018-12-24T05:53:56.795Z,1013.47
2018-12-24T05:54:56.800Z,1013.50
2018-12-24T05:55:56.867Z,1013.57
2018-12-24T05:56:56.765Z,1013.60
2018-12-24T05:57:56.771Z,1013.60
2018-12-24T05:58:56.735Z,1013.70
2018-12-24T05:59:56.717Z,1013.75
2018-12-24T06:00:56.742Z,1013.68
2018-12-24T06:01:56.718Z,1013.72
2018-12-24T06:02:56.688Z,1013.77
2018-12-24T06:03:56.692Z,1013.75
2018-12-24T06:04:56.660Z,1013.80
2018-12-24T06:05:56.686Z,1013.80
2018-12-24T06:06:56.681Z,1013.80
2018-12-24T06:07:56.682Z,1013.81
2018-12-24T06:08:56.648Z,1013.88
2018-12-24T06:09:56.627Z,1013.84
2018-12-24T06:10:56.632Z,1013.90
2018-12-24T06:11:56.627Z,1013.94
2018-12-24T06:12:56.591Z,1013.98
2018-12-24T06:13:58.092Z,1013.99
2018-12-24T06:14:56.586Z,1013.99
2018-12-24T06:15:56.571Z,1014.08
2018-12-24T06:16:56.579Z,1014.07
2018-12-24T06:17:57.670Z,1014.06
2018-12-24T06:18:56.529Z,1014.14
2018-12-24T06:19:56.512Z,1014.10
2018-12-24T06:20:56.512Z,1014.12
2018-12-24T06:21:56.490Z,1014.10
2018-12-24T06:22:56.464Z,1014.13
2018-12-24T06:23:56.456Z,1014.14
2018-12-24T06:24:56.454Z,1014.12
2018-12-24T06:25:56.449Z,1014.16
2018-12-24T06:26:56.447Z,1014.22
2018-12-24T06:27:56.417Z,1014.27
2018-12-24T06:28:56.421Z,1014.31
2018-12-24T06:29:56.416Z,1014.31
2018-12-24T06:30:56.409Z,1014.33
2018-12-24T06:31:56.394Z,1014.32
2018-12-24T06:32:56.353Z,1014.36
2018-12-24T06:33:56.373Z,1014.33
2018-12-24T06:34:56.335Z,1014.38
2018-12-24T06:35:56.351Z,1014.34
2018-12-24T06:36:56.334Z,1014.43
2018-12-24T06:37:56.325Z,1014.49
2018-12-24T06:38:56.310Z,1014.50
2018-12-24T06:39:56.290Z,1014.52
2018-12-24T06:40:56.282Z,1014.52
2018-12-24T06:41:56.280Z,1014.55
2018-12-24T06:42:56.254Z,1014.58
2018-12-24T06:43:56.243Z,1014.59
2018-12-24T06:44:56.244Z,1014.60
2018-12-24T06:45:56.247Z,1014.65
2018-12-24T06:46:56.234Z,1014.65
2018-12-24T06:47:56.197Z,1014.71
2018-12-24T06:48:56.209Z,1014.73
2018-12-24T06:49:56.178Z,1014.80
2018-12-24T06:50:56.193Z,1014.81
2018-12-24T06:51:56.203Z,1014.87
2018-12-24T06:52:56.142Z,1014.86
2018-12-24T06:53:56.152Z,1014.90
2018-12-24T06:54:56.118Z,1014.95
2018-12-24T06:55:56.119Z,1014.98
2018-12-24T06:56:56.117Z,1015.06
2018-12-24T06:57:56.081Z,1015.18
2018-12-24T06:58:56.089Z,1015.17
2018-12-24T06:59:56.065Z,1015.22
2018-12-24T07:00:56.064Z,1015.25
2018-12-24T07:01:56.041Z,1015.29
2018-12-24T07:02:56.050Z,1015.29
2018-12-24T07:03:56.055Z,1015.32
2018-12-24T07:04:56.029Z,1015.39
2018-12-24T07:05:55.995Z,1015.40
2018-12-24T07:06:56.004Z,1015.45
2018-12-24T07:07:55.972Z,1015.51
2018-12-24T07:08:55.970Z,1015.50
2018-12-24T07:09:55.952Z,1015.58
2018-12-24T07:10:55.944Z,1015.60
2018-12-24T07:11:55.991Z,1015.64
2018-12-24T07:12:55.914Z,1015.66
2018-12-24T07:13:55.911Z,1015.70
2018-12-24T07:14:55.932Z,1015.69
2018-12-24T07:15:55.918Z,1015.77
2018-12-24T07:16:56.001Z,1015.65
2018-12-24T07:17:55.928Z,1015.68
2018-12-24T07:18:55.862Z,1015.76
2018-12-24T07:19:55.884Z,1015.88
2018-12-24T07:20:55.870Z,1015.84
2018-12-24T07:21:55.868Z,1015.93
2018-12-24T07:22:55.845Z,1015.90
2018-12-24T07:23:55.854Z,1015.93
2018-12-24T07:24:55.785Z,1015.93
2018-12-24T07:25:55.787Z,1015.95
2018-12-24T07:26:55.842Z,1015.95
2018-12-24T07:27:55.809Z,1016.07
2018-12-24T07:28:59.127Z,1016.15
2018-12-24T07:29:55.750Z,1016.24
2018-12-24T07:30:55.774Z,1016.24
2018-12-24T07:31:55.760Z,1016.29
2018-12-24T07:32:55.742Z,1016.22
2018-12-24T07:33:55.761Z,1016.23
2018-12-24T07:34:55.694Z,1016.29
2018-12-24T07:35:55.674Z,1016.22
2018-12-24T07:36:55.688Z,1016.26
2018-12-24T07:37:55.707Z,1016.24
2018-12-24T07:40:04.834Z,1016.21
2018-12-24T07:41:05.817Z,1016.19
2018-12-24T07:42:05.812Z,1016.20
2018-12-24T07:43:05.815Z,1016.25
2018-12-24T07:44:05.782Z,1016.23
2018-12-24T07:45:05.810Z,1016.27
2018-12-24T07:46:05.770Z,1016.24
2018-12-24T07:47:05.766Z,1016.29
2018-12-24T07:48:06.009Z,1016.24
2018-12-24T07:49:05.741Z,1016.33
2018-12-24T07:50:05.729Z,1016.42
2018-12-24T07:51:05.718Z,1016.36
2018-12-24T07:52:05.705Z,1016.43
2018-12-24T07:53:05.716Z,1016.42
2018-12-24T07:54:05.692Z,1016.42
2018-12-24T07:55:05.675Z,1016.36
2018-12-24T07:56:05.664Z,1016.37
2018-12-24T07:57:05.645Z,1016.34
2018-12-24T07:58:05.668Z,1016.32
2018-12-24T07:59:05.621Z,1016.36
2018-12-24T08:00:05.626Z,1016.31
2018-12-24T08:01:05.619Z,1016.31
2018-12-24T08:02:05.610Z,1016.29
2018-12-24T08:03:05.602Z,1016.31
2018-12-24T08:04:05.591Z,1016.31
2018-12-24T08:05:05.561Z,1016.28
2018-12-24T08:06:05.566Z,1016.28
2018-12-24T08:07:05.544Z,1016.28
2018-12-24T08:08:05.558Z,1016.33
2018-12-24T08:09:05.526Z,1016.34
2018-12-24T08:10:05.505Z,1016.32
2018-12-24T08:11:05.498Z,1016.39
2018-12-24T08:12:05.490Z,1016.43
2018-12-24T08:13:05.500Z,1016.46
2018-12-24T08:14:05.470Z,1016.51
2018-12-24T08:15:05.464Z,1016.55
2018-12-24T08:16:05.448Z,1016.57
2018-12-24T08:17:05.431Z,1016.58
2018-12-24T08:18:05.451Z,1016.60
2018-12-24T08:19:05.422Z,1016.64
2018-12-24T08:20:05.394Z,1016.66
2018-12-24T08:21:05.397Z,1016.69
2018-12-24T08:22:05.372Z,1016.73
2018-12-24T08:23:05.432Z,1016.76
2018-12-24T08:24:05.357Z,1016.82
2018-12-24T08:25:05.338Z,1016.85
2018-12-24T08:26:05.335Z,1016.94
2018-12-24T08:27:05.330Z,1016.94
2018-12-24T08:28:05.330Z,1016.96
2018-12-24T08:29:05.308Z,1016.94
2018-12-24T08:30:05.296Z,1016.98
2018-12-24T08:31:05.281Z,1016.99
2018-12-24T08:32:05.263Z,1016.95
2018-12-24T08:33:05.279Z,1016.99
2018-12-24T08:34:05.257Z,1017.00
2018-12-24T08:35:05.246Z,1016.96
2018-12-24T08:36:05.224Z,1017.02
2018-12-24T08:37:05.213Z,1017.03
2018-12-24T08:38:05.227Z,1017.02
2018-12-24T08:39:05.217Z,1016.99
2018-12-24T08:40:05.175Z,1017.07
2018-12-24T08:41:05.173Z,1017.12
2018-12-24T08:42:05.160Z,1017.14
2018-12-24T08:43:05.167Z,1017.15
2018-12-24T08:44:05.135Z,1017.15
2018-12-24T08:45:05.132Z,1017.10
2018-12-24T08:46:05.124Z,1017.17
2018-12-24T08:47:05.118Z,1017.29
2018-12-24T08:48:05.121Z,1017.31
2018-12-24T08:49:05.101Z,1017.36
2018-12-24T08:50:05.079Z,1017.37
2018-12-24T08:51:05.071Z,1017.39
2018-12-24T08:52:05.054Z,1017.33
2018-12-24T08:53:05.069Z,1017.47
2018-12-24T08:54:05.038Z,1017.44
2018-12-24T08:55:05.027Z,1017.50
2018-12-24T08:56:05.016Z,1017.46
2018-12-24T08:57:05.003Z,1017.59
2018-12-24T08:58:04.986Z,1017.59
2018-12-24T08:59:05.008Z,1017.62
2018-12-24T09:00:05.002Z,1017.68
2018-12-24T09:01:04.951Z,1017.74
2018-12-24T09:02:04.951Z,1017.78
2018-12-24T09:03:04.928Z,1017.83
2018-12-24T09:04:04.920Z,1017.85
2018-12-24T09:05:04.945Z,1017.91
2018-12-24T09:06:04.909Z,1017.93
2018-12-24T09:07:04.886Z,1018.05
2018-12-24T09:08:04.971Z,1018.10
2018-12-24T09:09:04.869Z,1018.15
2018-12-24T09:10:04.895Z,1018.15
2018-12-24T09:11:04.855Z,1018.19
2018-12-24T09:12:04.840Z,1018.27
2018-12-24T09:13:04.845Z,1018.24
2018-12-24T09:14:04.828Z,1018.32
2018-12-24T09:15:04.817Z,1018.40
2018-12-24T09:16:04.800Z,1018.32
2018-12-24T09:17:04.789Z,1018.52
2018-12-24T09:18:04.785Z,1018.52
2018-12-24T09:19:04.769Z,1018.63
2018-12-24T09:20:04.778Z,1018.64
2018-12-24T09:21:04.743Z,1018.78
2018-12-24T09:22:04.723Z,1018.84
2018-12-24T09:23:04.712Z,1018.90
2018-12-24T09:24:04.722Z,1019.02
2018-12-24T09:25:04.965Z,1018.99
2018-12-24T09:26:04.689Z,1019.08
2018-12-24T09:27:04.679Z,1019.15
2018-12-24T09:28:04.681Z,1019.20
2018-12-24T09:29:04.653Z,1019.21
2018-12-24T09:30:04.677Z,1019.23
2018-12-24T09:31:04.628Z,1019.25
2018-12-24T09:32:04.635Z,1019.32
2018-12-24T09:33:04.613Z,1019.34
2018-12-24T09:34:04.619Z,1019.32
2018-12-24T09:35:04.616Z,1019.36
2018-12-24T09:36:04.583Z,1019.42
2018-12-24T09:37:04.566Z,1019.49
2018-12-24T09:38:04.551Z,1019.44
2018-12-24T09:39:04.536Z,1019.44
2018-12-24T09:41:13.762Z,1019.51
2018-12-24T09:42:14.717Z,1019.47
2018-12-24T09:43:14.693Z,1019.52
2018-12-24T09:44:14.687Z,1019.56
2018-12-24T09:45:14.676Z,1019.60
2018-12-24T09:46:14.687Z,1019.63
2018-12-24T09:47:14.677Z,1019.56
2018-12-24T09:48:14.658Z,1019.60
2018-12-24T09:49:14.633Z,1019.58
2018-12-24T09:50:14.631Z,1019.58
2018-12-24T09:51:14.875Z,1019.51
2018-12-24T09:52:14.617Z,1019.57
2018-12-24T09:53:14.601Z,1019.61
2018-12-24T09:54:14.585Z,1019.58
2018-12-24T09:55:14.592Z,1019.55
2018-12-24T09:56:14.581Z,1019.53
2018-12-24T09:57:14.569Z,1019.57
2018-12-24T09:58:14.554Z,1019.65
2018-12-24T09:59:14.537Z,1019.58
2018-12-24T10:00:14.520Z,1019.58
2018-12-24T10:01:14.526Z,1019.65
2018-12-24T10:02:16.367Z,1019.65
2018-12-24T10:03:14.529Z,1019.69
2018-12-24T10:04:14.522Z,1019.61
2018-12-24T10:05:14.467Z,1019.69
2018-12-24T10:06:14.479Z,1019.68
2018-12-24T10:07:14.536Z,1019.65
2018-12-24T10:08:14.444Z,1019.64
2018-12-24T10:09:14.444Z,1019.66
2018-12-24T10:10:14.490Z,1019.66
2018-12-24T10:11:14.431Z,1019.65
2018-12-24T10:12:14.410Z,1019.65
2018-12-24T10:13:14.371Z,1019.65
2018-12-24T10:14:14.374Z,1019.68
2018-12-24T10:15:14.366Z,1019.68
2018-12-24T10:16:14.359Z,1019.66
2018-12-24T10:17:14.343Z,1019.65
2018-12-24T10:18:14.332Z,1019.56
2018-12-24T10:19:14.323Z,1019.64
2018-12-24T10:20:14.306Z,1019.68
2018-12-24T10:21:14.312Z,1019.69
2018-12-24T10:22:14.291Z,1019.65
2018-12-24T10:23:14.274Z,1019.69
2018-12-24T10:24:14.268Z,1019.69
2018-12-24T10:25:14.247Z,1019.73
2018-12-24T10:26:14.257Z,1019.70
2018-12-24T10:27:14.226Z,1019.73
2018-12-24T10:28:14.216Z,1019.72
2018-12-24T10:29:14.225Z,1019.62
2018-12-24T10:30:14.192Z,1019.69
2018-12-24T10:31:14.202Z,1019.69
2018-12-24T10:32:14.193Z,1019.63
2018-12-24T10:33:14.171Z,1019.73
2018-12-24T10:34:14.163Z,1019.69
2018-12-24T10:35:14.146Z,1019.72
2018-12-24T10:36:14.149Z,1019.74
2018-12-24T10:37:14.145Z,1019.78
2018-12-24T10:38:14.114Z,1019.79
2018-12-24T10:39:14.099Z,1019.82
2018-12-24T10:40:14.092Z,1019.76
2018-12-24T10:41:14.079Z,1019.74
2018-12-24T10:42:14.154Z,1019.81
2018-12-24T10:43:14.057Z,1019.82
2018-12-24T10:44:14.057Z,1019.85
2018-12-24T10:45:16.694Z,1019.87
2018-12-24T10:46:14.030Z,1019.85
2018-12-24T10:47:14.024Z,1019.87
2018-12-24T10:48:14.015Z,1019.87
2018-12-24T10:49:13.988Z,1019.89
2018-12-24T10:50:13.981Z,1019.91
2018-12-24T10:51:13.976Z,1019.93
2018-12-24T10:52:13.961Z,1019.92
2018-12-24T10:53:14.963Z,1019.94
2018-12-24T10:54:13.928Z,1019.91
2018-12-24T10:55:13.929Z,1019.90
2018-12-24T10:56:13.934Z,1019.90
2018-12-24T10:57:13.902Z,1019.93
2018-12-24T10:58:13.903Z,1019.97
2018-12-24T10:59:13.911Z,1019.89
2018-12-24T11:00:13.878Z,1019.90
2018-12-24T11:01:13.859Z,1019.95
2018-12-24T11:02:13.851Z,1019.93
2018-12-24T11:03:13.845Z,1019.94
2018-12-24T11:04:13.850Z,1019.86
2018-12-24T11:05:13.825Z,1019.94
2018-12-24T11:06:13.806Z,1019.89
2018-12-24T11:07:13.803Z,1019.91
2018-12-24T11:08:13.792Z,1019.98
2018-12-24T11:09:13.796Z,1019.94
2018-12-24T11:10:13.765Z,1019.93
2018-12-24T11:11:13.757Z,1019.95
2018-12-24T11:12:13.745Z,1019.93
2018-12-24T11:13:13.729Z,1019.88
2018-12-24T11:14:13.735Z,1019.96
2018-12-24T11:15:13.724Z,1019.92
2018-12-24T11:16:13.706Z,1019.99
2018-12-24T11:17:13.705Z,1019.96
2018-12-24T11:18:13.679Z,1019.93
2018-12-24T11:19:13.699Z,1019.97
2018-12-24T11:20:13.675Z,1019.90
2018-12-24T11:21:13.640Z,1019.92
2018-12-24T11:22:13.634Z,1019.88
2018-12-24T11:23:13.636Z,1019.88
2018-12-24T11:24:13.634Z,1019.89
2018-12-24T11:25:13.606Z,1019.86
2018-12-24T11:26:13.597Z,1019.91
2018-12-24T11:27:13.576Z,1019.90
2018-12-24T11:28:13.572Z,1019.91
2018-12-24T11:29:13.838Z,1019.95
2018-12-24T11:30:13.556Z,1020.00
2018-12-24T11:31:13.534Z,1020.05
2018-12-24T11:32:13.525Z,1020.03
2018-12-24T11:33:13.516Z,1020.05
2018-12-24T11:34:13.533Z,1020.05
2018-12-24T11:35:13.492Z,1020.06
2018-12-24T11:36:13.484Z,1020.07
2018-12-24T11:37:13.469Z,1020.08
2018-12-24T11:38:13.461Z,1020.12
2018-12-24T11:39:13.475Z,1020.11
2018-12-24T11:40:13.448Z,1020.09
2018-12-24T11:42:22.619Z,1020.08
2018-12-24T11:43:23.620Z,1020.13
2018-12-24T11:44:23.628Z,1020.20
2018-12-24T11:45:23.595Z,1020.12
2018-12-24T11:46:23.575Z,1020.19
2018-12-24T11:47:23.577Z,1020.23
2018-12-24T11:48:23.558Z,1020.24
2018-12-24T11:49:23.580Z,1020.26
2018-12-24T11:50:23.556Z,1020.29
2018-12-24T11:51:23.527Z,1020.30
2018-12-24T11:52:23.515Z,1020.22
2018-12-24T11:53:23.516Z,1020.30
2018-12-24T11:54:23.524Z,1020.32
2018-12-24T11:55:23.485Z,1020.37
2018-12-24T11:56:23.481Z,1020.33
2018-12-24T11:57:24.377Z,1020.36
2018-12-24T11:58:23.449Z,1020.37
2018-12-24T11:59:23.458Z,1020.41
2018-12-24T12:00:23.439Z,1020.39
2018-12-24T12:01:23.415Z,1020.48
2018-12-24T12:02:23.417Z,1020.38
2018-12-24T12:03:23.399Z,1020.41
2018-12-24T12:04:23.409Z,1020.42
2018-12-24T12:05:23.376Z,1020.33
2018-12-24T12:06:23.364Z,1020.41
2018-12-24T12:07:23.347Z,1020.37
2018-12-24T12:08:23.348Z,1020.42
2018-12-24T12:09:23.359Z,1020.46
2018-12-24T12:10:23.328Z,1020.43
2018-12-24T12:11:23.304Z,1020.42
2018-12-24T12:12:23.295Z,1020.41